createdAt,value
2017-10-19T00:01:29.786Z,68.00
2017-10-19T00:04:03.518Z,61.07
2017-10-19T00:06:37.228Z,63.90
2017-10-19T00:09:11.744Z,148.20
2017-10-19T00:11:46.288Z,65.30
2017-10-19T00:14:19.973Z,64.83
2017-10-19T00:16:54.536Z,61.60
2017-10-19T00:19:28.151Z,60.50
2017-10-19T00:22:01.901Z,55.60
2017-10-19T00:24:35.825Z,55.57
2017-10-19T00:27:09.582Z,60.30
2017-10-19T00:29:43.234Z,60.57
2017-10-19T00:32:17.785Z,55.77
2017-10-19T00:34:52.393Z,80.80
2017-10-19T00:37:26.023Z,52.10
2017-10-19T00:39:59.639Z,49.87
2017-10-19T00:42:33.444Z,48.40
2017-10-19T00:45:14.960Z,47.10
2017-10-19T00:47:48.820Z,46.03
2017-10-19T00:50:22.550Z,50.13
2017-10-19T00:52:56.338Z,48.87
2017-10-19T00:55:30.141Z,47.70
2017-10-19T00:58:03.813Z,49.77
2017-10-19T01:00:38.417Z,48.37
2017-10-19T01:03:12.169Z,53.63
2017-10-19T01:05:45.999Z,50.07
2017-10-19T01:08:20.668Z,50.57
2017-10-19T01:10:54.594Z,48.93
2017-10-19T01:13:28.949Z,46.27
2017-10-19T01:16:03.481Z,49.80
2017-10-19T01:18:37.267Z,46.03
2017-10-19T01:21:11.004Z,48.50
2017-10-19T01:23:44.766Z,48.60
2017-10-19T01:26:18.561Z,48.17
2017-10-19T01:28:52.374Z,51.10
2017-10-19T01:31:26.293Z,46.30
2017-10-19T01:34:00.065Z,46.20
2017-10-19T01:36:34.656Z,49.03
2017-10-19T01:39:08.453Z,48.90
2017-10-19T01:41:42.151Z,46.80
2017-10-19T01:44:15.953Z,46.00
2017-10-19T01:46:49.817Z,46.97
2017-10-19T01:49:23.585Z,42.70
2017-10-19T01:51:57.390Z,41.57
2017-10-19T01:54:31.168Z,44.40
2017-10-19T01:57:04.769Z,44.60
2017-10-19T01:59:39.275Z,45.37
2017-10-19T02:02:13.236Z,42.90
2017-10-19T02:04:47.018Z,45.03
2017-10-19T02:07:20.913Z,42.30
2017-10-19T02:09:54.597Z,42.50
2017-10-19T02:12:28.497Z,40.30
2017-10-19T02:15:02.309Z,42.77
2017-10-19T02:17:36.081Z,43.53
2017-10-19T02:20:09.805Z,42.13
2017-10-19T02:34:32.027Z,41.80
2017-10-19T02:37:05.659Z,43.90
2017-10-19T02:39:39.271Z,43.63
2017-10-19T02:42:12.996Z,42.80
2017-10-19T02:44:46.611Z,43.72
2017-10-19T02:47:20.248Z,40.80
2017-10-19T02:49:53.879Z,42.03
2017-10-19T02:52:28.145Z,42.97
2017-10-19T02:55:01.847Z,40.33
2017-10-19T02:57:36.586Z,39.95
2017-10-19T03:00:11.146Z,42.45
2017-10-19T03:02:44.923Z,39.80
2017-10-19T03:05:18.616Z,44.13
2017-10-19T03:07:52.294Z,45.15
2017-10-19T03:10:26.062Z,45.80
2017-10-19T03:13:00.577Z,45.22
2017-10-19T03:15:34.392Z,44.90
2017-10-19T03:18:08.156Z,43.75
2017-10-19T03:20:42.712Z,39.88
2017-10-19T03:23:16.482Z,42.00
2017-10-19T03:25:50.450Z,42.42
2017-10-19T03:28:25.025Z,41.57
2017-10-19T03:30:58.891Z,43.50
2017-10-19T03:33:32.776Z,41.30
2017-10-19T03:36:06.413Z,41.10
2017-10-19T03:38:40.224Z,39.70
2017-10-19T03:41:13.924Z,43.25
2017-10-19T03:43:47.639Z,41.07
2017-10-19T03:46:21.360Z,42.25
2017-10-19T03:48:55.105Z,40.70
2017-10-19T03:51:28.853Z,40.83
2017-10-19T03:54:02.569Z,43.50
2017-10-19T03:56:36.381Z,40.20
2017-10-19T03:59:10.158Z,41.83
2017-10-19T04:01:44.544Z,39.38
2017-10-19T04:04:18.304Z,36.72
2017-10-19T04:06:52.871Z,37.50
2017-10-19T04:09:27.352Z,41.73
2017-10-19T04:12:00.938Z,39.10
2017-10-19T04:14:34.560Z,41.03
2017-10-19T04:17:08.219Z,37.42
2017-10-19T04:19:41.942Z,39.47
2017-10-19T04:22:15.707Z,38.58
2017-10-19T04:24:49.445Z,39.35
2017-10-19T04:27:23.471Z,40.25
2017-10-19T04:29:57.232Z,38.38
2017-10-19T04:32:30.897Z,41.17
2017-10-19T04:35:04.641Z,38.38
2017-10-19T04:37:38.218Z,42.62
2017-10-19T04:40:11.917Z,41.03
2017-10-19T04:42:45.609Z,40.35
2017-10-19T04:45:19.496Z,40.35
2017-10-19T04:47:53.361Z,41.28
2017-10-19T04:50:26.972Z,45.40
2017-10-19T04:53:01.441Z,44.15
2017-10-19T04:55:35.183Z,43.63
2017-10-19T04:58:09.677Z,47.00
2017-10-19T05:00:44.185Z,40.35
2017-10-19T05:03:17.788Z,43.10
2017-10-19T05:05:52.814Z,46.80
2017-10-19T05:08:27.373Z,42.70
2017-10-19T05:11:01.973Z,42.42
2017-10-19T05:13:35.683Z,41.25
2017-10-19T05:16:10.192Z,45.75
2017-10-19T05:18:44.877Z,45.15
2017-10-19T05:21:18.771Z,40.40
2017-10-19T05:23:52.601Z,44.75
2017-10-19T05:26:26.325Z,45.03
2017-10-19T05:29:00.667Z,44.05
2017-10-19T05:31:34.449Z,46.63
2017-10-19T05:34:08.172Z,46.80
2017-10-19T05:36:43.106Z,47.15
2017-10-19T05:39:16.880Z,47.30
2017-10-19T05:41:51.404Z,44.88
2017-10-19T05:44:25.068Z,41.42
2017-10-19T05:46:58.761Z,45.45
2017-10-19T05:49:32.518Z,46.20
2017-10-19T05:52:07.096Z,45.45
2017-10-19T05:54:41.245Z,45.05
2017-10-19T05:57:14.996Z,46.95
2017-10-19T05:59:49.194Z,47.15
2017-10-19T06:02:22.789Z,44.13
2017-10-19T06:04:57.250Z,45.70
2017-10-19T06:07:31.093Z,38.90
2017-10-19T06:10:04.865Z,40.67
2017-10-19T06:12:38.652Z,41.80
2017-10-19T06:15:12.491Z,40.88
2017-10-19T06:17:46.242Z,37.58
2017-10-19T06:20:20.773Z,35.92
2017-10-19T06:22:54.581Z,37.70
2017-10-19T06:25:28.327Z,37.53
2017-10-19T06:28:02.572Z,41.17
2017-10-19T06:30:36.421Z,40.35
2017-10-19T06:33:10.017Z,38.45
2017-10-19T06:35:43.825Z,40.30
2017-10-19T06:38:17.488Z,39.83
2017-10-19T06:40:51.212Z,39.53
2017-10-19T06:43:24.906Z,41.80
2017-10-19T06:45:58.723Z,41.80
2017-10-19T06:48:32.449Z,41.63
2017-10-19T06:51:07.052Z,43.92
2017-10-19T06:53:40.895Z,44.45
2017-10-19T06:56:14.482Z,43.05
2017-10-19T06:58:48.162Z,42.58
2017-10-19T07:01:22.828Z,43.90
2017-10-19T07:03:56.613Z,40.83
2017-10-19T07:06:30.405Z,41.70
2017-10-19T07:09:04.847Z,41.60
2017-10-19T07:11:39.370Z,42.28
2017-10-19T07:14:13.208Z,40.72
2017-10-19T07:16:48.052Z,40.33
2017-10-19T07:19:22.911Z,38.20
2017-10-19T07:21:56.652Z,41.28
2017-10-19T07:24:30.321Z,39.80
2017-10-19T07:27:04.976Z,40.50
2017-10-19T07:29:38.774Z,38.73
2017-10-19T07:32:13.395Z,40.92
2017-10-19T07:34:47.200Z,41.20
2017-10-19T07:37:20.786Z,38.85
2017-10-19T07:39:55.299Z,37.90
2017-10-19T07:42:28.905Z,38.73
2017-10-19T07:45:02.769Z,38.17
2017-10-19T07:47:37.343Z,35.22
2017-10-19T07:50:11.079Z,37.57
2017-10-19T07:52:44.721Z,38.67
2017-10-19T07:55:18.448Z,37.20
2017-10-19T07:57:52.175Z,40.37
2017-10-19T08:00:26.032Z,39.00
2017-10-19T08:02:59.857Z,39.93
2017-10-19T08:05:34.489Z,39.23
2017-10-19T08:08:08.251Z,40.27
2017-10-19T08:10:42.131Z,36.27
2017-10-19T08:13:15.949Z,36.90
2017-10-19T08:15:50.535Z,37.37
2017-10-19T08:18:24.388Z,37.43
2017-10-19T08:20:58.159Z,38.50
2017-10-19T08:23:31.882Z,40.53
2017-10-19T08:26:05.575Z,38.00
2017-10-19T08:28:39.229Z,37.60
2017-10-19T08:31:12.897Z,37.37
2017-10-19T08:33:46.769Z,36.63
2017-10-19T08:36:20.567Z,36.70
2017-10-19T08:38:54.518Z,36.77
2017-10-19T08:41:28.332Z,35.97
2017-10-19T08:44:02.022Z,35.23
2017-10-19T08:46:35.805Z,36.83
2017-10-19T08:49:10.323Z,34.40
2017-10-19T08:51:43.933Z,35.67
2017-10-19T08:54:18.468Z,35.87
2017-10-19T08:56:52.241Z,34.73
2017-10-19T08:59:26.018Z,34.90
2017-10-19T09:02:00.440Z,36.80
2017-10-19T09:04:34.160Z,33.70
2017-10-19T09:07:07.969Z,34.47
2017-10-19T09:09:42.492Z,34.60
2017-10-19T09:12:16.951Z,37.00
2017-10-19T09:14:50.569Z,33.20
2017-10-19T09:17:24.616Z,35.17
2017-10-19T09:19:59.062Z,32.90
2017-10-19T09:22:32.942Z,34.77
2017-10-19T09:25:06.602Z,33.67
2017-10-19T09:27:42.013Z,32.70
2017-10-19T09:30:16.044Z,31.60
2017-10-19T09:32:49.805Z,32.47
2017-10-19T09:35:23.434Z,32.20
2017-10-19T09:37:58.066Z,33.33
2017-10-19T09:40:31.838Z,32.70
2017-10-19T09:43:05.561Z,31.30
2017-10-19T09:45:39.313Z,32.23
2017-10-19T09:48:13.117Z,31.73
2017-10-19T09:50:46.876Z,32.90
2017-10-19T09:53:21.437Z,32.17
2017-10-19T09:55:55.091Z,29.87
2017-10-19T09:58:34.350Z,28.77
2017-10-19T10:01:11.764Z,31.77
2017-10-19T10:03:45.535Z,28.50
2017-10-19T10:06:21.554Z,29.37
2017-10-19T10:08:55.284Z,29.93
2017-10-19T10:11:29.078Z,30.40
2017-10-19T10:14:02.929Z,30.37
2017-10-19T10:16:37.917Z,28.73
2017-10-19T10:19:11.634Z,30.17
2017-10-19T10:21:45.502Z,31.60
2017-10-19T10:24:19.417Z,26.77
2017-10-19T10:26:53.143Z,28.47
2017-10-19T10:29:27.599Z,27.53
2017-10-19T10:32:01.310Z,27.30
2017-10-19T10:34:35.137Z,27.67
2017-10-19T10:37:10.009Z,29.03
2017-10-19T10:39:43.731Z,25.03
2017-10-19T10:42:17.322Z,25.77
2017-10-19T10:44:51.176Z,26.13
2017-10-19T10:47:25.653Z,27.53
2017-10-19T10:49:59.255Z,26.10
2017-10-19T10:52:33.876Z,27.40
2017-10-19T10:55:07.649Z,27.57
2017-10-19T10:57:41.294Z,25.40
2017-10-19T11:00:15.098Z,26.97
2017-10-19T11:02:48.904Z,27.50
2017-10-19T11:05:22.600Z,26.70
2017-10-19T11:07:56.660Z,26.00
2017-10-19T11:10:31.651Z,25.47
2017-10-19T11:13:06.418Z,25.23
2017-10-19T11:15:41.174Z,27.93
2017-10-19T11:18:14.997Z,26.60
2017-10-19T11:20:48.648Z,24.57
2017-10-19T11:23:23.340Z,26.87
2017-10-19T11:25:57.016Z,25.07
2017-10-19T11:28:30.698Z,26.43
2017-10-19T11:31:05.078Z,24.63
2017-10-19T11:33:39.879Z,24.60
2017-10-19T11:36:13.588Z,24.90
2017-10-19T11:38:47.492Z,23.53
2017-10-19T11:41:21.652Z,25.30
2017-10-19T11:43:55.356Z,21.80
2017-10-19T11:46:29.153Z,24.73
2017-10-19T11:49:02.959Z,24.10
2017-10-19T11:51:36.539Z,23.90
2017-10-19T11:54:10.186Z,23.20
2017-10-19T11:56:44.066Z,23.60
2017-10-19T11:59:17.780Z,19.63
2017-10-19T12:01:52.492Z,19.83
2017-10-19T12:04:28.145Z,19.93
2017-10-19T12:07:03.775Z,15.70
2017-10-19T12:09:37.608Z,16.07
2017-10-19T12:12:11.158Z,14.40
2017-10-19T12:14:44.919Z,16.43
2017-10-19T12:17:18.783Z,15.10
2017-10-19T12:19:54.508Z,14.00
2017-10-19T12:22:28.090Z,15.33
2017-10-19T12:25:02.573Z,15.00
2017-10-19T12:27:36.264Z,13.00
2017-10-19T12:30:10.113Z,13.47
2017-10-19T12:32:44.729Z,14.47
2017-10-19T12:35:18.650Z,13.03
2017-10-19T12:37:52.429Z,9.90
2017-10-19T12:40:26.219Z,10.00
2017-10-19T12:43:00.028Z,9.10
2017-10-19T12:45:33.813Z,8.67
2017-10-19T12:48:07.593Z,9.13
2017-10-19T12:50:41.288Z,9.77
2017-10-19T12:53:15.096Z,8.23
2017-10-19T12:55:48.845Z,8.20
2017-10-19T12:58:22.531Z,7.97
2017-10-19T13:00:56.362Z,9.40
2017-10-19T13:03:30.208Z,7.50
2017-10-19T13:06:03.912Z,8.50
2017-10-19T13:08:37.845Z,7.90
2017-10-19T13:11:11.545Z,8.93
2017-10-19T13:13:46.087Z,8.60
2017-10-19T13:16:19.977Z,7.20
2017-10-19T13:18:53.860Z,8.20
2017-10-19T13:21:27.627Z,7.10
2017-10-19T13:24:01.235Z,8.30
2017-10-19T13:26:34.925Z,8.00
2017-10-19T13:29:08.778Z,6.87
2017-10-19T13:31:43.283Z,8.30
2017-10-19T13:34:17.128Z,7.00
2017-10-19T13:36:51.533Z,8.07
2017-10-19T13:39:25.177Z,7.90
2017-10-19T13:41:58.922Z,7.60
2017-10-19T13:44:32.697Z,7.80
2017-10-19T13:47:07.213Z,7.50
2017-10-19T13:49:40.965Z,8.20
2017-10-19T13:52:15.554Z,6.77
2017-10-19T13:54:50.010Z,7.97
2017-10-19T13:57:23.753Z,7.93
2017-10-19T13:59:57.572Z,8.00
2017-10-19T14:02:31.384Z,8.40
2017-10-19T14:05:05.132Z,7.77
2017-10-19T14:07:39.446Z,7.80
2017-10-19T14:10:13.196Z,8.70
2017-10-19T14:12:46.938Z,8.00
2017-10-19T14:15:20.663Z,8.10
2017-10-19T14:17:54.401Z,8.90
2017-10-19T14:20:28.034Z,7.50
2017-10-19T14:23:02.533Z,8.87
2017-10-19T14:25:36.975Z,8.33
2017-10-19T14:28:10.729Z,7.43
2017-10-19T14:30:44.413Z,7.97
2017-10-19T14:33:18.169Z,7.90
2017-10-19T14:35:52.699Z,7.80
2017-10-19T14:38:26.416Z,7.47
2017-10-19T14:41:00.415Z,7.63
2017-10-19T14:43:34.130Z,8.33
2017-10-19T14:46:07.793Z,8.37
2017-10-19T14:48:41.352Z,8.10
2017-10-19T14:51:14.953Z,8.47
2017-10-19T14:53:52.585Z,7.67
2017-10-19T14:56:26.389Z,8.30
2017-10-19T14:59:00.131Z,8.23
2017-10-19T15:01:34.757Z,8.47
2017-10-19T15:04:08.508Z,8.70
2017-10-19T15:06:43.104Z,7.90
2017-10-19T15:09:16.788Z,9.57
2017-10-19T15:11:51.417Z,8.10
2017-10-19T15:14:25.152Z,7.90
2017-10-19T15:16:58.908Z,8.60
2017-10-19T15:19:32.629Z,8.63
2017-10-19T15:22:07.163Z,9.10
2017-10-19T15:24:40.944Z,9.20
2017-10-19T15:27:14.970Z,9.03
2017-10-19T15:29:49.576Z,9.20
2017-10-19T15:32:23.149Z,8.73
2017-10-19T15:34:56.923Z,10.13
2017-10-19T15:37:30.842Z,9.90
2017-10-19T15:40:04.642Z,10.37
2017-10-19T15:42:38.455Z,8.73
2017-10-19T15:45:12.142Z,9.40
2017-10-19T15:47:45.920Z,9.60
2017-10-19T15:50:19.617Z,10.10
2017-10-19T15:52:53.402Z,10.73
2017-10-19T15:55:27.105Z,9.23
2017-10-19T15:58:04.109Z,10.30
2017-10-19T16:00:37.845Z,10.73
2017-10-19T16:03:11.709Z,10.90
2017-10-19T16:05:45.482Z,11.57
2017-10-19T16:08:20.161Z,11.13
2017-10-19T16:10:53.771Z,10.77
2017-10-19T16:13:27.493Z,10.73
2017-10-19T16:16:01.457Z,11.70
2017-10-19T16:18:35.345Z,11.53
2017-10-19T16:21:09.016Z,11.23
2017-10-19T16:23:43.544Z,12.00
2017-10-19T16:26:17.335Z,11.67
2017-10-19T16:28:51.057Z,12.53
2017-10-19T16:31:24.723Z,12.73
2017-10-19T16:33:58.501Z,16.30
2017-10-19T16:36:32.160Z,16.67
2017-10-19T16:39:06.165Z,17.77
2017-10-19T16:41:39.870Z,17.67
2017-10-19T16:44:13.477Z,18.07
2017-10-19T16:46:47.244Z,18.93
2017-10-19T16:49:21.090Z,18.17
2017-10-19T16:51:55.085Z,19.00
2017-10-19T16:54:29.619Z,19.63
2017-10-19T16:57:03.322Z,22.37
2017-10-19T16:59:37.941Z,22.83
2017-10-19T17:02:11.709Z,25.17
2017-10-19T17:04:45.490Z,25.30
2017-10-19T17:07:19.363Z,26.40
2017-10-19T17:09:53.213Z,26.47
2017-10-19T17:12:26.994Z,30.87
2017-10-19T17:15:00.793Z,28.40
2017-10-19T17:17:34.545Z,32.00
2017-10-19T17:20:08.367Z,31.10
2017-10-19T17:22:42.229Z,34.80
2017-10-19T17:25:16.004Z,31.57
2017-10-19T17:27:50.505Z,34.43
2017-10-19T17:30:24.337Z,38.23
2017-10-19T17:32:58.896Z,34.57
2017-10-19T17:35:33.294Z,38.07
2017-10-19T17:38:06.923Z,40.40
2017-10-19T17:40:40.701Z,37.70
2017-10-19T17:43:14.524Z,39.40
2017-10-19T17:45:48.287Z,39.23
2017-10-19T17:48:23.153Z,40.93
2017-10-19T17:50:56.836Z,41.77
2017-10-19T17:53:31.420Z,39.77
2017-10-19T17:56:05.124Z,42.90
2017-10-19T17:58:38.918Z,43.73
2017-10-19T18:01:12.713Z,41.70
2017-10-19T18:03:47.471Z,44.73
2017-10-19T18:06:21.281Z,47.80
2017-10-19T18:08:54.985Z,46.90
2017-10-19T18:11:29.568Z,48.93
2017-10-19T18:14:03.323Z,53.17
2017-10-19T18:16:37.165Z,52.90
2017-10-19T18:19:10.957Z,49.23
2017-10-19T18:21:44.829Z,54.80
2017-10-19T18:24:18.566Z,50.70
2017-10-19T18:26:52.916Z,51.83
2017-10-19T18:29:26.690Z,51.10
2017-10-19T18:32:01.009Z,52.73
2017-10-19T18:34:36.608Z,51.90
2017-10-19T18:37:10.344Z,55.93
2017-10-19T18:39:44.012Z,54.20
2017-10-19T18:42:18.353Z,54.50
2017-10-19T18:44:53.135Z,50.77
2017-10-19T18:47:26.795Z,56.30
2017-10-19T18:50:00.549Z,55.70
2017-10-19T18:52:34.141Z,54.13
2017-10-19T18:55:07.862Z,54.20
2017-10-19T18:57:41.630Z,54.60
2017-10-19T19:00:15.776Z,57.67
2017-10-19T19:02:51.135Z,60.90
2017-10-19T19:05:24.766Z,58.07
2017-10-19T19:07:58.536Z,58.40
2017-10-19T19:10:33.197Z,55.83
2017-10-19T19:13:07.262Z,56.80
2017-10-19T19:15:40.990Z,58.50
2017-10-19T19:18:15.535Z,60.13
2017-10-19T19:20:49.511Z,57.60
2017-10-19T19:23:24.081Z,57.70
2017-10-19T19:25:57.746Z,55.80
2017-10-19T19:28:31.886Z,58.33
2017-10-19T19:31:05.556Z,56.70
2017-10-19T19:33:39.806Z,56.53
2017-10-19T19:36:13.476Z,57.60
2017-10-19T19:38:47.932Z,54.03
2017-10-19T19:41:22.478Z,55.60
2017-10-19T19:43:56.257Z,53.07
2017-10-19T19:46:29.993Z,49.80
2017-10-19T19:49:03.829Z,56.33
2017-10-19T19:51:39.096Z,55.57
2017-10-19T19:54:12.793Z,53.97
2017-10-19T19:56:47.861Z,49.03
2017-10-19T19:59:21.650Z,46.93
2017-10-19T20:01:55.232Z,46.40
2017-10-19T20:04:28.986Z,41.80
2017-10-19T20:07:03.713Z,41.60
2017-10-19T20:09:37.300Z,34.27
2017-10-19T20:12:11.065Z,33.07
2017-10-19T20:14:44.719Z,31.90
2017-10-19T20:17:18.497Z,30.97
2017-10-19T20:19:52.167Z,27.60
2017-10-19T20:22:26.705Z,27.73
2017-10-19T20:25:00.466Z,29.10
2017-10-19T20:27:34.433Z,28.47
2017-10-19T20:30:08.261Z,31.10
2017-10-19T20:32:45.561Z,29.00
2017-10-19T20:35:19.186Z,28.63
2017-10-19T20:37:52.945Z,27.40
2017-10-19T20:40:27.900Z,27.73
2017-10-19T20:43:01.434Z,27.57
2017-10-19T20:45:35.077Z,27.10
2017-10-19T20:50:47.671Z,27.57
2017-10-19T20:53:21.481Z,25.30
2017-10-19T20:56:12.754Z,26.70
2017-10-19T20:58:46.353Z,25.03
2017-10-19T21:01:20.115Z,27.57
2017-10-19T21:03:53.830Z,23.47
2017-10-19T21:06:27.604Z,24.60
2017-10-19T21:09:01.764Z,23.93
2017-10-19T21:11:35.473Z,23.47
2017-10-19T21:14:09.242Z,21.97
2017-10-19T21:16:43.052Z,25.23
2017-10-19T21:19:16.751Z,21.10
2017-10-19T21:21:51.212Z,22.30
2017-10-19T21:24:25.097Z,22.83
2017-10-19T21:26:59.268Z,21.57
2017-10-19T21:29:33.811Z,21.27
2017-10-19T21:32:08.454Z,20.63
2017-10-19T21:34:43.172Z,20.40
2017-10-19T21:37:17.816Z,22.37
2017-10-19T21:39:52.311Z,20.07
2017-10-19T21:42:26.314Z,20.90
2017-10-19T21:45:00.764Z,21.00
2017-10-19T21:47:34.621Z,20.80
2017-10-19T21:50:08.336Z,19.60
2017-10-19T21:52:42.092Z,18.70
2017-10-19T21:55:15.825Z,20.37
2017-10-19T21:57:50.202Z,20.80
2017-10-19T22:00:23.792Z,20.00
2017-10-19T22:02:57.496Z,21.47
2017-10-19T22:05:31.149Z,21.10
2017-10-19T22:08:04.878Z,20.00
2017-10-19T22:10:38.646Z,21.27
2017-10-19T22:13:12.389Z,22.00
2017-10-19T22:15:46.105Z,21.10
2017-10-19T22:18:20.679Z,20.63
2017-10-19T22:20:54.595Z,22.30
2017-10-19T22:23:28.397Z,20.70
2017-10-19T22:26:03.013Z,21.20
2017-10-19T22:28:36.826Z,20.77
2017-10-19T22:31:11.541Z,20.47
2017-10-19T22:33:46.045Z,20.23
2017-10-19T22:36:19.845Z,18.43
2017-10-19T22:38:53.573Z,18.50
2017-10-19T22:41:27.374Z,19.27
2017-10-19T22:44:02.201Z,18.43
2017-10-19T22:46:36.637Z,20.10
2017-10-19T22:49:10.418Z,18.03
2017-10-19T22:51:44.340Z,19.70
2017-10-19T22:54:18.145Z,19.77
2017-10-19T22:56:52.001Z,18.40
2017-10-19T22:59:26.433Z,18.73
2017-10-19T23:02:00.180Z,17.73
2017-10-19T23:04:33.961Z,18.73
2017-10-19T23:07:07.792Z,18.40
2017-10-19T23:09:41.412Z,16.53
2017-10-19T23:12:15.207Z,17.53
2017-10-19T23:14:48.849Z,18.23
2017-10-19T23:17:22.553Z,18.27
2017-10-19T23:19:56.313Z,17.60
2017-10-19T23:22:30.027Z,17.57
2017-10-19T23:25:03.773Z,18.20
2017-10-19T23:27:37.512Z,18.80
2017-10-19T23:30:11.317Z,17.13
2017-10-19T23:32:45.240Z,17.23
2017-10-19T23:35:19.033Z,18.50
2017-10-19T23:37:53.445Z,17.43
2017-10-19T23:40:27.997Z,19.70
2017-10-19T23:43:01.887Z,19.80
2017-10-19T23:45:35.564Z,18.53
2017-10-19T23:48:09.285Z,17.20
2017-10-19T23:50:43.057Z,16.27
2017-10-19T23:53:16.712Z,17.50
2017-10-19T23:55:50.534Z,17.00
2017-10-19T23:58:24.419Z,16.17
